createdAt,value
2018-09-12T00:00:22.654Z,10.50
2018-09-12T00:02:50.773Z,11.90
2018-09-12T00:05:18.846Z,11.67
2018-09-12T00:07:46.902Z,11.23
2018-09-12T00:10:14.954Z,14.93
2018-09-12T00:12:43.025Z,9.53
2018-09-12T00:15:11.073Z,10.00
2018-09-12T00:17:39.167Z,12.43
2018-09-12T00:20:07.211Z,11.17
2018-09-12T00:22:35.437Z,11.40
2018-09-12T00:25:03.558Z,9.60
2018-09-12T00:27:31.658Z,10.80
2018-09-12T00:29:59.738Z,10.93
2018-09-12T00:32:27.845Z,12.50
2018-09-12T00:34:55.923Z,9.20
2018-09-12T00:37:23.962Z,9.10
2018-09-12T00:39:52.015Z,9.30
2018-09-12T00:42:20.070Z,9.07
2018-09-12T00:44:48.127Z,10.15
2018-09-12T00:49:43.606Z,9.30
2018-09-12T00:52:11.653Z,12.03
2018-09-12T00:54:39.763Z,8.93
2018-09-12T00:57:08.542Z,9.17
2018-09-12T00:59:36.849Z,7.80
2018-09-12T01:02:04.941Z,9.07
2018-09-12T01:04:33.019Z,9.77
2018-09-12T01:07:01.112Z,10.87
2018-09-12T01:09:29.154Z,11.53
2018-09-12T01:11:57.241Z,8.83
2018-09-12T01:14:29.535Z,8.67
2018-09-12T01:16:57.779Z,9.83
2018-09-12T01:19:25.841Z,7.90
2018-09-12T01:21:53.901Z,8.80
2018-09-12T01:24:21.998Z,10.43
2018-09-12T01:26:50.058Z,7.90
2018-09-12T01:29:18.138Z,13.03
2018-09-12T01:31:46.194Z,8.83
2018-09-12T01:34:14.262Z,6.90
2018-09-12T01:36:42.331Z,10.53
2018-09-12T01:39:10.837Z,8.97
2018-09-12T01:41:38.905Z,8.70
2018-09-12T01:44:07.002Z,8.30
2018-09-12T01:46:35.102Z,9.83
2018-09-12T01:49:03.154Z,8.40
2018-09-12T01:51:31.201Z,8.70
2018-09-12T01:53:59.254Z,8.10
2018-09-12T01:56:27.314Z,10.13
2018-09-12T01:58:55.381Z,8.17
2018-09-12T02:01:23.444Z,7.67
2018-09-12T02:03:51.540Z,10.53
2018-09-12T02:06:19.611Z,13.00
2018-09-12T02:08:47.686Z,9.37
2018-09-12T02:11:15.746Z,8.97
2018-09-12T02:13:43.811Z,8.70
2018-09-12T02:16:11.890Z,10.63
2018-09-12T02:18:39.978Z,10.70
2018-09-12T02:21:08.034Z,8.37
2018-09-12T02:23:36.114Z,10.30
2018-09-12T02:26:04.196Z,10.07
2018-09-12T02:28:32.254Z,8.37
2018-09-12T02:31:00.334Z,8.00
2018-09-12T02:33:28.406Z,10.23
2018-09-12T02:36:01.898Z,9.27
2018-09-12T02:38:29.982Z,9.40
2018-09-12T02:40:58.082Z,10.90
2018-09-12T02:43:26.185Z,9.93
2018-09-12T02:45:54.266Z,11.20
2018-09-12T02:48:22.355Z,9.63
2018-09-12T02:50:50.430Z,9.93
2018-09-12T02:53:18.512Z,11.65
2018-09-12T02:55:46.586Z,9.20
2018-09-12T02:58:14.653Z,12.37
2018-09-12T03:00:42.756Z,10.27
2018-09-12T03:03:10.874Z,11.20
2018-09-12T03:05:38.926Z,8.57
2018-09-12T03:08:07.015Z,9.63
2018-09-12T03:10:35.074Z,8.63
2018-09-12T03:13:03.158Z,12.67
2018-09-12T03:15:31.318Z,9.80
2018-09-12T03:17:59.399Z,9.67
2018-09-12T03:20:27.545Z,10.07
2018-09-12T03:22:55.557Z,10.27
2018-09-12T03:25:23.626Z,13.53
2018-09-12T03:27:51.689Z,9.80
2018-09-12T03:30:19.781Z,10.00
2018-09-12T03:32:47.849Z,11.37
2018-09-12T03:35:15.945Z,7.67
2018-09-12T03:37:44.014Z,9.60
2018-09-12T03:40:12.082Z,10.43
2018-09-12T03:42:40.142Z,10.20
2018-09-12T03:45:08.236Z,8.47
2018-09-12T03:47:36.274Z,8.73
2018-09-12T03:50:04.353Z,12.27
2018-09-12T03:52:32.410Z,11.03
2018-09-12T03:55:00.498Z,9.57
2018-09-12T03:57:28.545Z,11.30
2018-09-12T03:59:56.633Z,8.37
2018-09-12T04:02:24.725Z,8.63
2018-09-12T04:04:52.798Z,8.70
2018-09-12T04:07:20.910Z,9.67
2018-09-12T04:09:48.978Z,10.47
2018-09-12T04:12:17.037Z,9.57
2018-09-12T04:14:45.350Z,9.87
2018-09-12T04:17:13.610Z,10.10
2018-09-12T04:19:41.653Z,9.03
2018-09-12T04:22:09.751Z,9.47
2018-09-12T04:24:37.798Z,8.93
2018-09-12T04:27:05.835Z,9.40
2018-09-12T04:29:34.125Z,11.90
2018-09-12T04:32:02.181Z,11.57
2018-09-12T04:34:30.229Z,12.23
2018-09-12T04:36:58.298Z,9.60
2018-09-12T04:39:26.363Z,11.20
2018-09-12T04:41:54.430Z,11.73
2018-09-12T04:44:22.510Z,9.53
2018-09-12T04:46:50.541Z,10.33
2018-09-12T04:49:18.587Z,9.67
2018-09-12T04:51:46.633Z,14.30
2018-09-12T04:54:14.694Z,13.00
2018-09-12T04:56:42.780Z,9.83
2018-09-12T04:59:10.870Z,12.33
2018-09-12T05:01:38.982Z,10.73
2018-09-12T05:04:07.058Z,10.87
2018-09-12T05:06:35.125Z,10.33
2018-09-12T05:09:03.410Z,8.80
2018-09-12T05:11:31.454Z,13.13
2018-09-12T05:13:59.510Z,10.73
2018-09-12T05:16:27.662Z,8.83
2018-09-12T05:18:55.623Z,9.13
2018-09-12T05:21:24.085Z,9.57
2018-09-12T05:23:52.154Z,11.27
2018-09-12T05:26:20.214Z,11.30
2018-09-12T05:28:48.305Z,9.93
2018-09-12T05:31:16.375Z,8.80
2018-09-12T05:33:44.434Z,8.97
2018-09-12T05:36:12.522Z,12.17
2018-09-12T05:38:40.542Z,9.50
2018-09-12T05:41:08.601Z,12.83
2018-09-12T05:43:36.650Z,11.33
2018-09-12T05:46:05.012Z,11.47
2018-09-12T05:48:33.158Z,10.30
2018-09-12T05:51:01.238Z,9.90
2018-09-12T05:53:29.398Z,9.57
2018-09-12T05:55:57.546Z,13.23
2018-09-12T05:58:25.587Z,8.93
2018-09-12T06:00:53.648Z,9.90
2018-09-12T06:03:21.741Z,12.77
2018-09-12T06:05:49.829Z,9.90
2018-09-12T06:08:17.953Z,9.17
2018-09-12T06:10:46.005Z,11.30
2018-09-12T06:13:14.054Z,13.53
2018-09-12T06:15:42.094Z,12.37
2018-09-12T06:18:10.144Z,13.77
2018-09-12T06:20:38.244Z,9.53
2018-09-12T06:23:06.339Z,11.13
2018-09-12T06:25:34.385Z,12.70
2018-09-12T06:28:02.436Z,13.33
2018-09-12T06:30:30.494Z,12.33
2018-09-12T06:32:58.557Z,12.63
2018-09-12T06:35:26.625Z,11.20
2018-09-12T06:37:54.783Z,13.93
2018-09-12T06:40:22.758Z,9.13
2018-09-12T06:42:50.798Z,9.60
2018-09-12T06:45:18.856Z,12.30
2018-09-12T06:47:46.941Z,11.33
2018-09-12T06:50:15.002Z,9.23
2018-09-12T06:52:43.073Z,9.37
2018-09-12T06:55:11.134Z,8.93
2018-09-12T06:57:39.175Z,10.67
2018-09-12T07:00:08.235Z,10.83
2018-09-12T07:02:36.303Z,9.20
2018-09-12T07:05:04.480Z,13.73
2018-09-12T07:07:32.571Z,11.30
2018-09-12T07:10:00.631Z,10.03
2018-09-12T07:12:28.692Z,13.80
2018-09-12T07:14:56.734Z,11.60
2018-09-12T07:17:24.779Z,8.27
2018-09-12T07:19:52.829Z,9.43
2018-09-12T07:22:20.882Z,9.00
2018-09-12T07:24:49.042Z,11.13
2018-09-12T07:37:06.578Z,11.63
2018-09-12T07:39:34.621Z,9.23
2018-09-12T07:44:30.086Z,9.00
2018-09-12T07:46:58.161Z,8.60
2018-09-12T07:51:53.642Z,10.20
2018-09-12T07:54:21.684Z,9.50
2018-09-12T07:59:17.147Z,10.10
2018-09-12T08:06:40.118Z,8.40
2018-09-12T08:09:09.946Z,7.30
2018-09-12T08:11:38.018Z,10.90
2018-09-12T08:14:06.111Z,9.10
2018-09-12T08:16:34.209Z,7.50
2018-09-12T08:23:57.101Z,6.40
2018-09-12T08:26:25.190Z,5.87
2018-09-12T08:28:53.289Z,12.23
2018-09-12T08:33:48.754Z,10.00
2018-09-12T08:36:16.858Z,5.50
2018-09-12T08:41:12.314Z,7.20
2018-09-12T08:43:40.390Z,8.20
2018-09-12T11:44:21.810Z,4.25
2018-09-12T11:56:39.558Z,3.65
2018-09-12T12:50:43.610Z,3.00
2018-09-12T13:22:40.583Z,3.10
2018-09-12T13:27:36.070Z,4.10
2018-09-12T13:30:04.148Z,3.15
2018-09-12T13:49:46.598Z,2.85
2018-09-12T14:02:04.286Z,3.27
2018-09-12T14:21:44.246Z,4.60
2018-09-12T14:34:01.942Z,2.90
2018-09-12T14:53:41.898Z,3.35
2018-09-12T15:08:27.062Z,3.65
2018-09-12T15:28:06.948Z,3.52
2018-09-12T15:33:02.789Z,4.90
2018-09-12T15:35:30.841Z,3.58
2018-09-12T15:42:53.998Z,5.30
2018-09-12T15:45:22.074Z,3.55
2018-09-12T15:47:50.993Z,5.83
2018-09-12T15:50:19.063Z,8.33
2018-09-12T16:07:31.886Z,4.72
2018-09-12T16:12:27.339Z,6.28
2018-09-12T16:14:55.417Z,4.30
2018-09-12T16:19:50.875Z,5.70
2018-09-12T16:22:18.956Z,4.03
2018-09-12T16:24:47.010Z,4.60
2018-09-12T16:37:04.667Z,5.10
2018-09-12T17:28:41.258Z,4.87
2018-09-12T17:31:09.326Z,21.17
2018-09-12T17:33:37.406Z,7.97
2018-09-12T17:36:05.481Z,13.95
2018-09-12T17:38:33.555Z,9.93
2018-09-12T17:41:01.622Z,7.80
2018-09-12T17:45:57.114Z,10.10
2018-09-12T17:50:52.600Z,10.40
2018-09-12T17:53:20.670Z,5.10
2018-09-12T17:55:48.867Z,6.30
2018-09-12T17:58:16.793Z,7.45
2018-09-12T18:00:44.895Z,7.60
2018-09-12T18:05:40.422Z,8.85
2018-09-12T18:08:08.453Z,8.68
2018-09-12T18:10:36.550Z,8.30
2018-09-12T18:25:21.734Z,10.40
2018-09-12T18:27:49.819Z,7.30
2018-09-12T18:30:17.966Z,8.30
2018-09-12T18:32:46.085Z,5.87
2018-09-12T18:35:14.150Z,7.78
2018-09-12T18:37:42.265Z,10.80
2018-09-12T18:40:10.334Z,5.83
2018-09-12T18:42:38.414Z,6.53
2018-09-12T18:45:06.494Z,9.33
2018-09-12T18:47:34.566Z,8.00
2018-09-12T18:50:02.653Z,7.03
2018-09-12T18:52:30.736Z,7.22
2018-09-12T18:54:58.810Z,7.35
2018-09-12T18:57:26.937Z,5.20
2018-09-12T18:59:55.014Z,4.00
2018-09-12T19:17:07.570Z,6.10
2018-09-12T20:33:18.556Z,5.10
2018-09-12T20:35:46.669Z,4.30
2018-09-12T20:45:37.152Z,6.80
2018-09-12T20:48:05.245Z,7.95
2018-09-12T20:50:33.327Z,7.00
2018-09-12T21:02:51.412Z,7.72
2018-09-12T21:05:19.430Z,7.17
2018-09-12T21:07:47.510Z,5.20
2018-09-12T21:10:15.619Z,7.90
2018-09-12T21:12:43.906Z,6.50
2018-09-12T21:15:12.054Z,6.60
2018-09-12T21:20:08.663Z,4.73
2018-09-12T21:22:36.828Z,5.17
2018-09-12T21:25:04.956Z,5.60
2018-09-12T21:27:33.058Z,6.47
2018-09-12T21:30:01.127Z,5.58
2018-09-12T21:32:29.194Z,5.25
2018-09-12T21:34:57.366Z,5.40
2018-09-12T21:37:25.446Z,4.90
2018-09-12T21:39:53.562Z,5.60
2018-09-12T21:42:21.661Z,6.60
2018-09-12T21:44:49.782Z,5.00
2018-09-12T21:47:17.962Z,5.03
2018-09-12T21:49:46.091Z,5.07
2018-09-12T21:52:14.169Z,7.10
2018-09-12T21:54:42.314Z,5.93
2018-09-12T21:57:10.465Z,7.90
2018-09-12T22:01:03.205Z,6.73
2018-09-12T22:03:31.319Z,8.70
2018-09-12T22:05:59.481Z,7.97
2018-09-12T22:08:27.641Z,7.03
2018-09-12T22:10:55.730Z,9.10
2018-09-12T22:13:23.806Z,7.57
2018-09-12T22:15:51.881Z,10.57
2018-09-12T22:18:19.957Z,12.27
2018-09-12T22:20:48.057Z,9.97
2018-09-12T22:23:16.190Z,9.10
2018-09-12T22:25:44.245Z,7.83
2018-09-12T22:28:12.317Z,9.97
2018-09-12T22:30:40.431Z,8.40
2018-09-12T22:33:08.496Z,9.33
2018-09-12T22:35:36.578Z,10.07
2018-09-12T22:38:04.667Z,12.23
2018-09-12T22:40:32.741Z,9.47
2018-09-12T22:43:00.897Z,8.43
2018-09-12T22:45:28.986Z,9.90
2018-09-12T22:47:57.057Z,9.63
2018-09-12T22:50:25.130Z,13.13
2018-09-12T22:52:53.205Z,8.93
2018-09-12T22:55:21.303Z,11.10
2018-09-12T22:57:49.370Z,9.93
2018-09-12T23:00:17.481Z,9.57
2018-09-12T23:02:45.493Z,9.53
2018-09-12T23:05:13.614Z,10.37
2018-09-12T23:07:41.673Z,10.40
2018-09-12T23:10:09.766Z,9.57
2018-09-12T23:12:37.838Z,10.40
2018-09-12T23:15:05.927Z,11.00
2018-09-12T23:17:34.026Z,10.47
2018-09-12T23:20:02.097Z,10.30
2018-09-12T23:22:30.173Z,9.23
2018-09-12T23:24:58.279Z,9.03
2018-09-12T23:27:26.345Z,10.37
2018-09-12T23:29:54.445Z,10.23
2018-09-12T23:32:22.515Z,10.00
2018-09-12T23:34:50.586Z,13.10
2018-09-12T23:37:18.667Z,10.07
2018-09-12T23:39:46.749Z,11.43
2018-09-12T23:42:14.827Z,10.07
2018-09-12T23:44:42.902Z,10.87
2018-09-12T23:47:10.986Z,11.37
2018-09-12T23:49:39.063Z,11.53
2018-09-12T23:52:07.154Z,10.00
2018-09-12T23:54:35.226Z,10.17
2018-09-12T23:57:03.331Z,10.53
2018-09-12T23:59:31.401Z,10.90
